sensor_id;sensor_type;location;lat;lon;timestamp;temperature;humidity
19928;DHT22;10126;50.876;4.470;2023-11-21T00:00:57;11.20;99.90
19928;DHT22;10126;50.876;4.470;2023-11-21T00:02:59;11.20;99.90
19928;DHT22;10126;50.876;4.470;2023-11-21T00:04:59;11.20;99.90
19928;DHT22;10126;50.876;4.470;2023-11-21T00:07:00;11.20;99.90
19928;DHT22;10126;50.876;4.470;2023-11-21T00:09:00;11.20;99.90
19928;DHT22;10126;50.876;4.470;2023-11-21T00:11:01;11.10;99.90
19928;DHT22;10126;50.876;4.470;2023-11-21T00:13:02;11.20;99.90
19928;DHT22;10126;50.876;4.470;2023-11-21T00:15:04;11.20;99.90
19928;DHT22;10126;50.876;4.470;2023-11-21T00:17:14;11.10;99.90
19928;DHT22;10126;50.876;4.470;2023-11-21T00:19:14;11.10;99.90
19928;DHT22;10126;50.876;4.470;2023-11-21T00:21:15;11.00;99.90
19928;DHT22;10126;50.876;4.470;2023-11-21T00:23:15;11.10;99.90
19928;DHT22;10126;50.876;4.470;2023-11-21T00:25:16;11.20;99.90
19928;DHT22;10126;50.876;4.470;2023-11-21T00:27:17;11.20;99.90
19928;DHT22;10126;50.876;4.470;2023-11-21T00:29:18;11.20;99.90
19928;DHT22;10126;50.876;4.470;2023-11-21T00:31:19;11.20;99.90
19928;DHT22;10126;50.876;4.470;2023-11-21T00:33:20;11.10;99.90
19928;DHT22;10126;50.876;4.470;2023-11-21T00:35:20;11.20;99.90
19928;DHT22;10126;50.876;4.470;2023-11-21T00:37:21;11.20;99.90
19928;DHT22;10126;50.876;4.470;2023-11-21T00:39:22;11.30;99.90
19928;DHT22;10126;50.876;4.470;2023-11-21T00:41:22;11.20;99.90
19928;DHT22;10126;50.876;4.470;2023-11-21T00:43:23;11.30;99.90
19928;DHT22;10126;50.876;4.470;2023-11-21T00:45:24;11.20;99.90
19928;DHT22;10126;50.876;4.470;2023-11-21T00:47:26;11.20;99.90
19928;DHT22;10126;50.876;4.470;2023-11-21T00:49:26;11.20;99.90
19928;DHT22;10126;50.876;4.470;2023-11-21T00:51:28;11.10;99.90
19928;DHT22;10126;50.876;4.470;2023-11-21T00:53:28;11.10;99.90
19928;DHT22;10126;50.876;4.470;2023-11-21T00:55:29;11.00;99.90
19928;DHT22;10126;50.876;4.470;2023-11-21T00:57:30;10.90;99.90
19928;DHT22;10126;50.876;4.470;2023-11-21T00:59:31;10.80;99.90
19928;DHT22;10126;50.876;4.470;2023-11-21T01:01:31;10.80;99.90
19928;DHT22;10126;50.876;4.470;2023-11-21T01:03:32;10.70;99.90
19928;DHT22;10126;50.876;4.470;2023-11-21T01:05:33;10.70;99.90
19928;DHT22;10126;50.876;4.470;2023-11-21T01:07:33;10.70;99.90
19928;DHT22;10126;50.876;4.470;2023-11-21T01:09:34;10.60;99.90
19928;DHT22;10126;50.876;4.470;2023-11-21T01:11:36;10.70;99.90
19928;DHT22;10126;50.876;4.470;2023-11-21T01:13:39;10.60;99.90
19928;DHT22;10126;50.876;4.470;2023-11-21T01:15:40;10.70;99.90
19928;DHT22;10126;50.876;4.470;2023-11-21T01:17:40;10.70;99.90
19928;DHT22;10126;50.876;4.470;2023-11-21T01:19:41;10.70;99.90
19928;DHT22;10126;50.876;4.470;2023-11-21T01:21:42;10.70;99.90
19928;DHT22;10126;50.876;4.470;2023-11-21T01:23:42;10.70;99.90
19928;DHT22;10126;50.876;4.470;2023-11-21T01:25:43;10.70;99.90
19928;DHT22;10126;50.876;4.470;2023-11-21T01:27:43;10.70;99.90
19928;DHT22;10126;50.876;4.470;2023-11-21T01:29:44;10.80;99.90
19928;DHT22;10126;50.876;4.470;2023-11-21T01:31:45;10.90;99.90
19928;DHT22;10126;50.876;4.470;2023-11-21T01:33:46;10.90;99.90
19928;DHT22;10126;50.876;4.470;2023-11-21T01:35:46;10.90;99.90
19928;DHT22;10126;50.876;4.470;2023-11-21T01:37:47;10.80;99.90
19928;DHT22;10126;50.876;4.470;2023-11-21T01:39:48;10.70;99.90
19928;DHT22;10126;50.876;4.470;2023-11-21T01:41:50;10.70;99.90
19928;DHT22;10126;50.876;4.470;2023-11-21T01:43:52;10.70;99.90
19928;DHT22;10126;50.876;4.470;2023-11-21T01:45:54;10.70;99.90
19928;DHT22;10126;50.876;4.470;2023-11-21T01:47:57;10.70;99.90
19928;DHT22;10126;50.876;4.470;2023-11-21T01:49:59;10.80;99.90
19928;DHT22;10126;50.876;4.470;2023-11-21T01:52:00;10.70;99.90
19928;DHT22;10126;50.876;4.470;2023-11-21T01:54:02;10.70;99.90
19928;DHT22;10126;50.876;4.470;2023-11-21T01:56:06;10.80;99.90
19928;DHT22;10126;50.876;4.470;2023-11-21T01:58:09;10.90;99.90
19928;DHT22;10126;50.876;4.470;2023-11-21T02:00:10;11.00;99.90
19928;DHT22;10126;50.876;4.470;2023-11-21T02:02:16;11.10;99.90
19928;DHT22;10126;50.876;4.470;2023-11-21T02:04:18;11.10;99.90
19928;DHT22;10126;50.876;4.470;2023-11-21T02:06:19;11.10;99.90
19928;DHT22;10126;50.876;4.470;2023-11-21T02:08:20;11.10;99.90
19928;DHT22;10126;50.876;4.470;2023-11-21T02:10:21;11.20;99.90
19928;DHT22;10126;50.876;4.470;2023-11-21T02:12:24;11.20;99.90
19928;DHT22;10126;50.876;4.470;2023-11-21T02:14:27;11.30;99.90
19928;DHT22;10126;50.876;4.470;2023-11-21T02:16:28;11.30;99.90
19928;DHT22;10126;50.876;4.470;2023-11-21T02:18:31;11.30;99.90
19928;DHT22;10126;50.876;4.470;2023-11-21T02:20:32;11.30;99.90
19928;DHT22;10126;50.876;4.470;2023-11-21T02:22:38;11.20;99.90
19928;DHT22;10126;50.876;4.470;2023-11-21T02:24:41;11.10;99.90
19928;DHT22;10126;50.876;4.470;2023-11-21T02:26:42;11.10;99.90
19928;DHT22;10126;50.876;4.470;2023-11-21T02:28:43;11.00;99.90
19928;DHT22;10126;50.876;4.470;2023-11-21T02:30:44;11.00;99.90
19928;DHT22;10126;50.876;4.470;2023-11-21T02:32:44;10.80;99.90
19928;DHT22;10126;50.876;4.470;2023-11-21T02:34:45;10.90;99.90
19928;DHT22;10126;50.876;4.470;2023-11-21T02:36:47;10.80;99.90
19928;DHT22;10126;50.876;4.470;2023-11-21T02:38:50;10.80;99.90
19928;DHT22;10126;50.876;4.470;2023-11-21T02:40:51;10.70;99.90
19928;DHT22;10126;50.876;4.470;2023-11-21T02:42:52;10.70;99.90
19928;DHT22;10126;50.876;4.470;2023-11-21T02:44:52;10.80;99.90
19928;DHT22;10126;50.876;4.470;2023-11-21T02:46:53;10.90;99.90
19928;DHT22;10126;50.876;4.470;2023-11-21T02:48:54;11.00;99.90
19928;DHT22;10126;50.876;4.470;2023-11-21T02:50:54;11.10;99.90
19928;DHT22;10126;50.876;4.470;2023-11-21T02:52:55;11.20;99.90
19928;DHT22;10126;50.876;4.470;2023-11-21T02:54:58;11.10;99.90
19928;DHT22;10126;50.876;4.470;2023-11-21T02:56:58;11.10;99.90
19928;DHT22;10126;50.876;4.470;2023-11-21T02:59:00;11.10;99.90
19928;DHT22;10126;50.876;4.470;2023-11-21T03:01:00;11.10;99.90
19928;DHT22;10126;50.876;4.470;2023-11-21T03:03:02;11.20;99.90
19928;DHT22;10126;50.876;4.470;2023-11-21T03:05:05;11.20;99.90
19928;DHT22;10126;50.876;4.470;2023-11-21T03:07:06;11.20;99.90
19928;DHT22;10126;50.876;4.470;2023-11-21T03:09:06;11.20;99.90
19928;DHT22;10126;50.876;4.470;2023-11-21T03:11:07;11.20;99.90
19928;DHT22;10126;50.876;4.470;2023-11-21T03:13:08;11.20;99.90
19928;DHT22;10126;50.876;4.470;2023-11-21T03:15:09;11.30;99.90
19928;DHT22;10126;50.876;4.470;2023-11-21T03:17:10;11.30;99.90
19928;DHT22;10126;50.876;4.470;2023-11-21T03:19:11;11.30;99.90
19928;DHT22;10126;50.876;4.470;2023-11-21T03:21:12;11.30;99.90
19928;DHT22;10126;50.876;4.470;2023-11-21T03:23:12;11.30;99.90
19928;DHT22;10126;50.876;4.470;2023-11-21T03:25:13;11.30;99.90
19928;DHT22;10126;50.876;4.470;2023-11-21T03:27:13;11.40;99.90
19928;DHT22;10126;50.876;4.470;2023-11-21T03:29:14;11.50;99.90
19928;DHT22;10126;50.876;4.470;2023-11-21T03:31:15;11.50;99.90
19928;DHT22;10126;50.876;4.470;2023-11-21T03:33:17;11.50;99.90
19928;DHT22;10126;50.876;4.470;2023-11-21T03:35:18;11.40;99.90
19928;DHT22;10126;50.876;4.470;2023-11-21T03:37:21;11.50;99.90
19928;DHT22;10126;50.876;4.470;2023-11-21T03:39:22;11.50;99.90
19928;DHT22;10126;50.876;4.470;2023-11-21T03:41:23;11.50;99.90
19928;DHT22;10126;50.876;4.470;2023-11-21T03:43:23;11.40;99.90
19928;DHT22;10126;50.876;4.470;2023-11-21T03:45:25;11.40;99.90
19928;DHT22;10126;50.876;4.470;2023-11-21T03:47:28;11.40;99.90
19928;DHT22;10126;50.876;4.470;2023-11-21T03:49:29;11.40;99.90
19928;DHT22;10126;50.876;4.470;2023-11-21T03:51:30;11.40;99.90
19928;DHT22;10126;50.876;4.470;2023-11-21T03:53:30;11.40;99.90
19928;DHT22;10126;50.876;4.470;2023-11-21T03:55:31;11.50;99.90
19928;DHT22;10126;50.876;4.470;2023-11-21T03:57:32;11.50;99.90
19928;DHT22;10126;50.876;4.470;2023-11-21T03:59:32;11.50;99.90
19928;DHT22;10126;50.876;4.470;2023-11-21T04:01:33;11.50;99.90
19928;DHT22;10126;50.876;4.470;2023-11-21T04:03:34;11.60;99.90
19928;DHT22;10126;50.876;4.470;2023-11-21T04:05:34;11.50;99.90
19928;DHT22;10126;50.876;4.470;2023-11-21T04:07:35;11.40;99.90
19928;DHT22;10126;50.876;4.470;2023-11-21T04:09:37;11.50;99.90
19928;DHT22;10126;50.876;4.470;2023-11-21T04:11:38;11.50;99.90
19928;DHT22;10126;50.876;4.470;2023-11-21T04:13:39;11.40;99.90
19928;DHT22;10126;50.876;4.470;2023-11-21T04:15:40;11.50;99.90
19928;DHT22;10126;50.876;4.470;2023-11-21T04:17:41;11.50;99.90
19928;DHT22;10126;50.876;4.470;2023-11-21T04:19:42;11.40;99.90
19928;DHT22;10126;50.876;4.470;2023-11-21T04:21:43;11.40;99.90
19928;DHT22;10126;50.876;4.470;2023-11-21T04:23:44;11.40;99.90
19928;DHT22;10126;50.876;4.470;2023-11-21T04:25:44;11.40;99.90
19928;DHT22;10126;50.876;4.470;2023-11-21T04:27:45;11.50;99.90
19928;DHT22;10126;50.876;4.470;2023-11-21T04:29:46;11.50;99.90
19928;DHT22;10126;50.876;4.470;2023-11-21T04:31:47;11.40;99.90
19928;DHT22;10126;50.876;4.470;2023-11-21T04:33:49;11.40;99.90
19928;DHT22;10126;50.876;4.470;2023-11-21T04:35:50;11.30;99.90
19928;DHT22;10126;50.876;4.470;2023-11-21T04:37:50;11.40;99.90
19928;DHT22;10126;50.876;4.470;2023-11-21T04:39:51;11.40;99.90
19928;DHT22;10126;50.876;4.470;2023-11-21T04:41:52;11.50;99.90
19928;DHT22;10126;50.876;4.470;2023-11-21T04:43:53;11.50;99.90
19928;DHT22;10126;50.876;4.470;2023-11-21T04:45:55;11.30;99.90
19928;DHT22;10126;50.876;4.470;2023-11-21T04:47:55;11.20;99.90
19928;DHT22;10126;50.876;4.470;2023-11-21T04:49:56;11.20;99.90
19928;DHT22;10126;50.876;4.470;2023-11-21T04:51:57;11.30;99.90
19928;DHT22;10126;50.876;4.470;2023-11-21T04:53:57;11.40;99.90
19928;DHT22;10126;50.876;4.470;2023-11-21T04:55:58;11.50;99.90
19928;DHT22;10126;50.876;4.470;2023-11-21T04:57:59;11.50;99.90
19928;DHT22;10126;50.876;4.470;2023-11-21T04:59:59;11.40;99.90
19928;DHT22;10126;50.876;4.470;2023-11-21T05:02:00;11.30;99.90
19928;DHT22;10126;50.876;4.470;2023-11-21T05:04:01;11.40;99.90
19928;DHT22;10126;50.876;4.470;2023-11-21T05:06:01;11.50;99.90
19928;DHT22;10126;50.876;4.470;2023-11-21T05:08:02;11.60;99.90
19928;DHT22;10126;50.876;4.470;2023-11-21T05:10:05;11.60;99.90
19928;DHT22;10126;50.876;4.470;2023-11-21T05:12:12;11.60;99.90
19928;DHT22;10126;50.876;4.470;2023-11-21T05:14:14;11.60;99.90
19928;DHT22;10126;50.876;4.470;2023-11-21T05:16:15;11.50;99.90
19928;DHT22;10126;50.876;4.470;2023-11-21T05:18:15;11.40;99.90
19928;DHT22;10126;50.876;4.470;2023-11-21T05:20:16;11.40;99.90
19928;DHT22;10126;50.876;4.470;2023-11-21T05:22:23;11.40;99.90
19928;DHT22;10126;50.876;4.470;2023-11-21T05:24:25;11.40;99.90
19928;DHT22;10126;50.876;4.470;2023-11-21T05:26:25;11.50;99.90
19928;DHT22;10126;50.876;4.470;2023-11-21T05:28:26;11.50;99.90
19928;DHT22;10126;50.876;4.470;2023-11-21T05:30:27;11.40;99.90
19928;DHT22;10126;50.876;4.470;2023-11-21T05:32:28;11.30;99.90
19928;DHT22;10126;50.876;4.470;2023-11-21T05:34:29;11.30;99.90
19928;DHT22;10126;50.876;4.470;2023-11-21T05:36:29;11.30;99.90
19928;DHT22;10126;50.876;4.470;2023-11-21T05:38:30;11.20;99.90
19928;DHT22;10126;50.876;4.470;2023-11-21T05:40:30;11.30;99.90
19928;DHT22;10126;50.876;4.470;2023-11-21T05:42:32;11.40;99.90
19928;DHT22;10126;50.876;4.470;2023-11-21T05:44:32;11.40;99.90
19928;DHT22;10126;50.876;4.470;2023-11-21T05:46:33;11.50;99.90
19928;DHT22;10126;50.876;4.470;2023-11-21T05:48:34;11.40;99.90
19928;DHT22;10126;50.876;4.470;2023-11-21T05:50:37;11.20;99.90
19928;DHT22;10126;50.876;4.470;2023-11-21T05:52:38;11.20;99.90
19928;DHT22;10126;50.876;4.470;2023-11-21T05:54:40;11.30;99.90
19928;DHT22;10126;50.876;4.470;2023-11-21T05:56:41;11.40;99.90
19928;DHT22;10126;50.876;4.470;2023-11-21T05:58:42;11.40;99.90
19928;DHT22;10126;50.876;4.470;2023-11-21T06:00:42;11.40;99.90
19928;DHT22;10126;50.876;4.470;2023-11-21T06:02:43;11.20;99.90
19928;DHT22;10126;50.876;4.470;2023-11-21T06:04:44;11.20;99.90
19928;DHT22;10126;50.876;4.470;2023-11-21T06:06:44;11.10;99.90
19928;DHT22;10126;50.876;4.470;2023-11-21T06:08:45;11.00;99.90
19928;DHT22;10126;50.876;4.470;2023-11-21T06:10:46;11.10;99.90
19928;DHT22;10126;50.876;4.470;2023-11-21T06:12:49;11.10;99.90
19928;DHT22;10126;50.876;4.470;2023-11-21T06:14:50;11.30;99.90
19928;DHT22;10126;50.876;4.470;2023-11-21T06:16:51;11.40;99.90
19928;DHT22;10126;50.876;4.470;2023-11-21T06:18:52;11.50;99.90
19928;DHT22;10126;50.876;4.470;2023-11-21T06:20:53;11.60;99.90
19928;DHT22;10126;50.876;4.470;2023-11-21T06:22:54;11.50;99.90
19928;DHT22;10126;50.876;4.470;2023-11-21T06:24:55;11.50;99.90
19928;DHT22;10126;50.876;4.470;2023-11-21T06:26:55;11.30;99.90
19928;DHT22;10126;50.876;4.470;2023-11-21T06:28:56;11.30;99.90
19928;DHT22;10126;50.876;4.470;2023-11-21T06:30:57;11.40;99.90
19928;DHT22;10126;50.876;4.470;2023-11-21T06:33:05;11.50;99.90
19928;DHT22;10126;50.876;4.470;2023-11-21T06:35:07;11.60;99.90
19928;DHT22;10126;50.876;4.470;2023-11-21T06:37:11;11.50;99.90
19928;DHT22;10126;50.876;4.470;2023-11-21T06:39:12;11.50;99.90
19928;DHT22;10126;50.876;4.470;2023-11-21T06:41:15;11.50;99.90
19928;DHT22;10126;50.876;4.470;2023-11-21T06:43:16;11.50;99.90
19928;DHT22;10126;50.876;4.470;2023-11-21T06:45:16;11.40;99.90
19928;DHT22;10126;50.876;4.470;2023-11-21T06:47:18;11.40;99.90
19928;DHT22;10126;50.876;4.470;2023-11-21T06:49:20;11.20;99.90
19928;DHT22;10126;50.876;4.470;2023-11-21T06:51:21;11.40;99.90
19928;DHT22;10126;50.876;4.470;2023-11-21T06:53:21;11.50;99.90
19928;DHT22;10126;50.876;4.470;2023-11-21T06:55:22;11.60;99.90
19928;DHT22;10126;50.876;4.470;2023-11-21T06:57:24;11.60;99.90
19928;DHT22;10126;50.876;4.470;2023-11-21T06:59:25;11.50;99.90
19928;DHT22;10126;50.876;4.470;2023-11-21T07:01:26;11.40;99.90
19928;DHT22;10126;50.876;4.470;2023-11-21T07:03:26;11.30;99.90
19928;DHT22;10126;50.876;4.470;2023-11-21T07:05:27;11.40;99.90
19928;DHT22;10126;50.876;4.470;2023-11-21T07:07:28;11.40;99.90
19928;DHT22;10126;50.876;4.470;2023-11-21T07:09:29;11.30;99.90
19928;DHT22;10126;50.876;4.470;2023-11-21T07:11:30;11.20;99.90
19928;DHT22;10126;50.876;4.470;2023-11-21T07:13:31;11.20;99.90
19928;DHT22;10126;50.876;4.470;2023-11-21T07:15:31;11.30;99.90
19928;DHT22;10126;50.876;4.470;2023-11-21T07:17:33;11.40;99.90
19928;DHT22;10126;50.876;4.470;2023-11-21T07:19:33;11.40;99.90
19928;DHT22;10126;50.876;4.470;2023-11-21T07:21:38;11.60;99.90
19928;DHT22;10126;50.876;4.470;2023-11-21T07:23:39;11.70;99.90
19928;DHT22;10126;50.876;4.470;2023-11-21T07:25:40;11.70;99.90
19928;DHT22;10126;50.876;4.470;2023-11-21T07:27:42;11.70;99.90
19928;DHT22;10126;50.876;4.470;2023-11-21T07:29:42;11.60;99.90
19928;DHT22;10126;50.876;4.470;2023-11-21T07:31:43;11.70;99.90
19928;DHT22;10126;50.876;4.470;2023-11-21T07:33:43;11.50;99.90
19928;DHT22;10126;50.876;4.470;2023-11-21T07:35:44;11.60;99.90
19928;DHT22;10126;50.876;4.470;2023-11-21T07:37:45;11.70;99.90
19928;DHT22;10126;50.876;4.470;2023-11-21T07:39:47;11.70;99.90
19928;DHT22;10126;50.876;4.470;2023-11-21T07:41:47;11.70;99.90
19928;DHT22;10126;50.876;4.470;2023-11-21T07:43:51;11.70;99.90
19928;DHT22;10126;50.876;4.470;2023-11-21T07:45:51;11.80;99.90
19928;DHT22;10126;50.876;4.470;2023-11-21T07:47:52;11.70;99.90
19928;DHT22;10126;50.876;4.470;2023-11-21T07:49:53;11.60;99.90
19928;DHT22;10126;50.876;4.470;2023-11-21T07:51:56;11.60;99.90
19928;DHT22;10126;50.876;4.470;2023-11-21T07:53:56;11.70;99.90
19928;DHT22;10126;50.876;4.470;2023-11-21T07:55:58;11.90;99.90
19928;DHT22;10126;50.876;4.470;2023-11-21T07:57:59;11.80;99.90
19928;DHT22;10126;50.876;4.470;2023-11-21T08:00:00;11.90;99.90
19928;DHT22;10126;50.876;4.470;2023-11-21T08:02:00;11.90;99.90
19928;DHT22;10126;50.876;4.470;2023-11-21T08:04:01;11.90;99.90
19928;DHT22;10126;50.876;4.470;2023-11-21T08:06:04;11.90;99.90
19928;DHT22;10126;50.876;4.470;2023-11-21T08:08:06;11.70;99.90
19928;DHT22;10126;50.876;4.470;2023-11-21T08:10:07;11.50;99.90
19928;DHT22;10126;50.876;4.470;2023-11-21T08:12:10;11.50;99.90
19928;DHT22;10126;50.876;4.470;2023-11-21T08:14:11;11.50;99.90
19928;DHT22;10126;50.876;4.470;2023-11-21T08:16:11;11.40;99.90
19928;DHT22;10126;50.876;4.470;2023-11-21T08:18:13;11.40;99.90
19928;DHT22;10126;50.876;4.470;2023-11-21T08:20:15;11.40;99.90
19928;DHT22;10126;50.876;4.470;2023-11-21T08:22:16;11.40;99.90
19928;DHT22;10126;50.876;4.470;2023-11-21T08:24:18;11.50;99.90
19928;DHT22;10126;50.876;4.470;2023-11-21T08:26:18;11.60;99.90
19928;DHT22;10126;50.876;4.470;2023-11-21T08:28:19;11.50;99.90
19928;DHT22;10126;50.876;4.470;2023-11-21T08:30:22;11.40;99.90
19928;DHT22;10126;50.876;4.470;2023-11-21T08:32:24;11.40;99.90
19928;DHT22;10126;50.876;4.470;2023-11-21T08:34:25;11.50;99.90
19928;DHT22;10126;50.876;4.470;2023-11-21T08:36:26;11.60;99.90
19928;DHT22;10126;50.876;4.470;2023-11-21T08:38:26;11.70;99.90
19928;DHT22;10126;50.876;4.470;2023-11-21T08:40:29;11.70;99.90
19928;DHT22;10126;50.876;4.470;2023-11-21T08:42:30;11.70;99.90
19928;DHT22;10126;50.876;4.470;2023-11-21T08:44:30;11.70;99.90
19928;DHT22;10126;50.876;4.470;2023-11-21T08:46:32;11.60;99.90
19928;DHT22;10126;50.876;4.470;2023-11-21T08:48:36;11.50;99.90
19928;DHT22;10126;50.876;4.470;2023-11-21T08:50:37;11.50;99.90
19928;DHT22;10126;50.876;4.470;2023-11-21T08:52:40;11.50;99.90
19928;DHT22;10126;50.876;4.470;2023-11-21T08:54:42;11.50;99.90
19928;DHT22;10126;50.876;4.470;2023-11-21T08:56:44;11.40;99.90
19928;DHT22;10126;50.876;4.470;2023-11-21T08:58:44;11.40;99.90
19928;DHT22;10126;50.876;4.470;2023-11-21T09:00:45;11.50;99.90
19928;DHT22;10126;50.876;4.470;2023-11-21T09:02:46;11.60;99.90
19928;DHT22;10126;50.876;4.470;2023-11-21T09:04:47;11.70;99.90
19928;DHT22;10126;50.876;4.470;2023-11-21T09:06:47;11.80;99.90
19928;DHT22;10126;50.876;4.470;2023-11-21T09:08:48;11.80;99.90
19928;DHT22;10126;50.876;4.470;2023-11-21T09:10:49;11.80;99.90
19928;DHT22;10126;50.876;4.470;2023-11-21T09:12:49;11.80;99.90
19928;DHT22;10126;50.876;4.470;2023-11-21T09:14:50;11.80;99.90
19928;DHT22;10126;50.876;4.470;2023-11-21T09:16:51;11.90;99.90
19928;DHT22;10126;50.876;4.470;2023-11-21T09:18:51;11.80;99.90
19928;DHT22;10126;50.876;4.470;2023-11-21T09:20:52;11.70;99.90
19928;DHT22;10126;50.876;4.470;2023-11-21T09:22:53;11.70;99.90
19928;DHT22;10126;50.876;4.470;2023-11-21T09:24:54;11.80;99.90
19928;DHT22;10126;50.876;4.470;2023-11-21T09:26:56;11.70;99.90
19928;DHT22;10126;50.876;4.470;2023-11-21T09:28:57;11.80;99.90
19928;DHT22;10126;50.876;4.470;2023-11-21T09:30:58;11.70;99.90
19928;DHT22;10126;50.876;4.470;2023-11-21T09:32:58;11.80;99.90
19928;DHT22;10126;50.876;4.470;2023-11-21T09:34:59;11.60;99.90
19928;DHT22;10126;50.876;4.470;2023-11-21T09:37:02;11.60;99.90
19928;DHT22;10126;50.876;4.470;2023-11-21T09:39:05;11.60;99.90
19928;DHT22;10126;50.876;4.470;2023-11-21T09:41:19;11.60;99.90
19928;DHT22;10126;50.876;4.470;2023-11-21T09:43:21;11.80;99.90
19928;DHT22;10126;50.876;4.470;2023-11-21T09:45:29;11.90;99.90
19928;DHT22;10126;50.876;4.470;2023-11-21T09:47:36;12.20;99.90
19928;DHT22;10126;50.876;4.470;2023-11-21T09:49:38;12.10;99.90
19928;DHT22;10126;50.876;4.470;2023-11-21T09:51:43;11.90;99.90
19928;DHT22;10126;50.876;4.470;2023-11-21T09:53:44;11.90;99.90
19928;DHT22;10126;50.876;4.470;2023-11-21T09:55:48;11.90;99.90
19928;DHT22;10126;50.876;4.470;2023-11-21T09:57:53;12.00;99.90
19928;DHT22;10126;50.876;4.470;2023-11-21T09:59:55;12.00;99.90
19928;DHT22;10126;50.876;4.470;2023-11-21T10:02:07;12.10;99.90
19928;DHT22;10126;50.876;4.470;2023-11-21T10:04:11;12.00;99.90
19928;DHT22;10126;50.876;4.470;2023-11-21T10:06:13;11.90;99.90
19928;DHT22;10126;50.876;4.470;2023-11-21T10:08:16;11.80;99.90
19928;DHT22;10126;50.876;4.470;2023-11-21T10:10:21;11.90;99.90
19928;DHT22;10126;50.876;4.470;2023-11-21T10:12:23;11.70;99.90
19928;DHT22;10126;50.876;4.470;2023-11-21T10:14:24;11.50;99.90
19928;DHT22;10126;50.876;4.470;2023-11-21T10:16:27;11.50;99.90
19928;DHT22;10126;50.876;4.470;2023-11-21T10:18:28;11.50;99.90
19928;DHT22;10126;50.876;4.470;2023-11-21T10:20:30;11.30;99.90
19928;DHT22;10126;50.876;4.470;2023-11-21T10:22:31;11.30;99.90
19928;DHT22;10126;50.876;4.470;2023-11-21T10:24:33;11.50;99.90
19928;DHT22;10126;50.876;4.470;2023-11-21T10:26:34;11.60;99.90
19928;DHT22;10126;50.876;4.470;2023-11-21T10:28:36;11.70;99.90
19928;DHT22;10126;50.876;4.470;2023-11-21T10:30:38;11.60;99.90
19928;DHT22;10126;50.876;4.470;2023-11-21T10:32:40;11.70;99.90
19928;DHT22;10126;50.876;4.470;2023-11-21T10:34:41;11.60;99.90
19928;DHT22;10126;50.876;4.470;2023-11-21T10:36:41;11.60;99.90
19928;DHT22;10126;50.876;4.470;2023-11-21T10:38:42;11.70;99.90
19928;DHT22;10126;50.876;4.470;2023-11-21T10:40:44;12.10;99.90
19928;DHT22;10126;50.876;4.470;2023-11-21T10:42:45;12.20;99.90
19928;DHT22;10126;50.876;4.470;2023-11-21T10:44:46;12.20;99.90
19928;DHT22;10126;50.876;4.470;2023-11-21T10:46:48;12.50;99.90
19928;DHT22;10126;50.876;4.470;2023-11-21T10:48:53;12.60;99.90
19928;DHT22;10126;50.876;4.470;2023-11-21T10:50:56;12.70;99.90
19928;DHT22;10126;50.876;4.470;2023-11-21T10:52:57;12.60;99.90
19928;DHT22;10126;50.876;4.470;2023-11-21T10:54:57;12.70;99.90
19928;DHT22;10126;50.876;4.470;2023-11-21T10:57:03;12.80;99.90
19928;DHT22;10126;50.876;4.470;2023-11-21T10:59:04;12.70;99.90
19928;DHT22;10126;50.876;4.470;2023-11-21T11:01:07;12.80;99.90
19928;DHT22;10126;50.876;4.470;2023-11-21T11:03:09;12.90;99.90
19928;DHT22;10126;50.876;4.470;2023-11-21T11:05:19;13.00;99.90
19928;DHT22;10126;50.876;4.470;2023-11-21T11:07:21;13.00;99.90
19928;DHT22;10126;50.876;4.470;2023-11-21T11:09:26;13.10;99.90
19928;DHT22;10126;50.876;4.470;2023-11-21T11:11:29;13.20;99.90
19928;DHT22;10126;50.876;4.470;2023-11-21T11:13:31;13.20;99.90
19928;DHT22;10126;50.876;4.470;2023-11-21T11:15:32;13.30;99.90
19928;DHT22;10126;50.876;4.470;2023-11-21T11:17:34;13.20;99.90
19928;DHT22;10126;50.876;4.470;2023-11-21T11:19:35;13.20;99.90
19928;DHT22;10126;50.876;4.470;2023-11-21T11:22:23;13.20;99.90
19928;DHT22;10126;50.876;4.470;2023-11-21T11:29:18;13.20;99.90
19928;DHT22;10126;50.876;4.470;2023-11-21T11:33:58;13.00;99.90
19928;DHT22;10126;50.876;4.470;2023-11-21T11:38:34;12.90;99.90
19928;DHT22;10126;50.876;4.470;2023-11-21T11:40:45;13.20;99.90
19928;DHT22;10126;50.876;4.470;2023-11-21T11:42:58;13.00;99.90
19928;DHT22;10126;50.876;4.470;2023-11-21T11:45:17;12.90;99.90
19928;DHT22;10126;50.876;4.470;2023-11-21T11:47:20;13.00;99.90
19928;DHT22;10126;50.876;4.470;2023-11-21T11:49:27;13.10;99.90
19928;DHT22;10126;50.876;4.470;2023-11-21T11:51:28;13.20;99.90
19928;DHT22;10126;50.876;4.470;2023-11-21T11:53:37;13.40;99.90
19928;DHT22;10126;50.876;4.470;2023-11-21T11:55:39;13.10;99.90
19928;DHT22;10126;50.876;4.470;2023-11-21T11:57:41;12.70;99.90
19928;DHT22;10126;50.876;4.470;2023-11-21T12:00:10;12.60;99.90
19928;DHT22;10126;50.876;4.470;2023-11-21T12:02:12;12.60;99.90
19928;DHT22;10126;50.876;4.470;2023-11-21T12:06:35;12.40;99.90
19928;DHT22;10126;50.876;4.470;2023-11-21T12:08:36;12.30;99.90
19928;DHT22;10126;50.876;4.470;2023-11-21T12:10:39;12.30;99.90
19928;DHT22;10126;50.876;4.470;2023-11-21T12:12:47;12.40;99.90
19928;DHT22;10126;50.876;4.470;2023-11-21T12:14:48;12.50;99.90
19928;DHT22;10126;50.876;4.470;2023-11-21T12:16:49;12.50;99.90
19928;DHT22;10126;50.876;4.470;2023-11-21T12:18:49;12.40;99.90
19928;DHT22;10126;50.876;4.470;2023-11-21T12:20:50;12.20;99.90
19928;DHT22;10126;50.876;4.470;2023-11-21T12:22:53;12.00;99.90
19928;DHT22;10126;50.876;4.470;2023-11-21T12:24:54;11.90;99.90
19928;DHT22;10126;50.876;4.470;2023-11-21T12:26:54;11.90;99.90
19928;DHT22;10126;50.876;4.470;2023-11-21T12:28:56;11.80;99.90
19928;DHT22;10126;50.876;4.470;2023-11-21T12:30:57;11.80;99.90
19928;DHT22;10126;50.876;4.470;2023-11-21T12:32:59;11.90;99.90
19928;DHT22;10126;50.876;4.470;2023-11-21T12:35:00;11.90;99.90
19928;DHT22;10126;50.876;4.470;2023-11-21T12:37:03;12.00;99.90
19928;DHT22;10126;50.876;4.470;2023-11-21T12:39:04;12.10;99.90
19928;DHT22;10126;50.876;4.470;2023-11-21T12:41:05;12.10;99.90
19928;DHT22;10126;50.876;4.470;2023-11-21T12:43:07;12.20;99.90
19928;DHT22;10126;50.876;4.470;2023-11-21T12:45:18;12.00;99.90
19928;DHT22;10126;50.876;4.470;2023-11-21T12:47:20;12.10;99.90
19928;DHT22;10126;50.876;4.470;2023-11-21T12:49:22;12.00;99.90
19928;DHT22;10126;50.876;4.470;2023-11-21T12:51:22;12.10;99.90
19928;DHT22;10126;50.876;4.470;2023-11-21T12:53:23;12.20;99.90
19928;DHT22;10126;50.876;4.470;2023-11-21T12:55:24;12.10;99.90
19928;DHT22;10126;50.876;4.470;2023-11-21T12:57:27;12.10;99.90
19928;DHT22;10126;50.876;4.470;2023-11-21T12:59:28;11.90;99.90
19928;DHT22;10126;50.876;4.470;2023-11-21T13:01:30;11.80;99.90